Pollard, Alabama
Current Conditions -  °F | °C
As of 12:53 AM on Thursday 23 Oct 2014 (Local Time) from KGZH Reporting Station
Clear Clear  
Wind Chill:   Ceiling: Unl
Heat Index:   Visibility: 10mi
Dew Point:   Wind: 3mph
Humidity: 86%   Direction: 10°N
Pressure: 30.08"   Gusts: NA
Location:  31.1088°N, 87.2802°W
Report Text: KGZH 230553Z AUTO 01003KT 10SM CLR 08/06 A3008 RMK AO2 SLP185 T00830061 10161 20078 402560078 58009
Loading
Personal Weather Stations






























Interactive Weather Map
Tropical Storm Tracking
New forecast layout! Learn more

10-Day Weather Forecast

Advertisements
Track Severe Weather on mobile